createdAt,value
2022-12-17T00:01:48.260Z,50.00
2022-12-17T00:04:33.844Z,51.88
2022-12-17T00:07:19.777Z,49.70
2022-12-17T00:10:16.890Z,50.22
2022-12-17T00:13:05.138Z,48.28
2022-12-17T00:15:51.023Z,48.95
2022-12-17T00:18:38.109Z,49.28
2022-12-17T00:21:24.363Z,49.30
2022-12-17T00:24:10.352Z,47.75
2022-12-17T00:26:56.730Z,47.33
2022-12-17T00:29:42.758Z,50.83
2022-12-17T00:32:28.768Z,48.53
2022-12-17T00:35:15.899Z,46.67
2022-12-17T00:38:04.350Z,41.13
2022-12-17T00:40:50.208Z,35.70
2022-12-17T00:43:36.188Z,33.47
2022-12-17T00:46:22.391Z,31.08
2022-12-17T00:49:07.639Z,27.92
2022-12-17T00:51:54.698Z,29.13
2022-12-17T00:54:40.350Z,27.52
2022-12-17T00:57:25.940Z,28.58
2022-12-17T01:00:11.212Z,29.73
2022-12-17T01:02:57.257Z,28.42
2022-12-17T01:05:43.099Z,26.85
2022-12-17T01:08:31.978Z,25.83
2022-12-17T01:11:18.870Z,27.33
2022-12-17T01:14:04.762Z,26.77
2022-12-17T01:16:50.691Z,28.23
2022-12-17T01:19:36.628Z,26.45
2022-12-17T01:22:18.658Z,26.35
2022-12-17T01:25:05.446Z,28.02
2022-12-17T01:27:51.199Z,27.98
2022-12-17T01:30:37.748Z,26.25
2022-12-17T01:33:25.714Z,25.95
2022-12-17T01:36:13.613Z,27.48
2022-12-17T01:38:59.405Z,25.15
2022-12-17T01:41:46.579Z,24.95
2022-12-17T01:45:11.709Z,25.80
2022-12-17T01:47:59.755Z,22.40
2022-12-17T01:50:48.047Z,22.42
2022-12-17T01:53:34.539Z,22.75
2022-12-17T01:56:20.729Z,24.23
2022-12-17T01:59:07.669Z,24.15
2022-12-17T02:01:53.651Z,21.50
2022-12-17T02:04:39.651Z,21.90
2022-12-17T02:07:35.224Z,21.50
2022-12-17T02:10:27.240Z,21.40
2022-12-17T02:13:15.959Z,20.15
2022-12-17T02:16:06.706Z,20.50
2022-12-17T02:18:55.929Z,21.15
2022-12-17T02:21:42.052Z,20.00
2022-12-17T02:24:40.192Z,20.95
2022-12-17T02:27:28.604Z,19.00
2022-12-17T02:30:15.932Z,20.92
2022-12-17T02:33:03.487Z,19.67
2022-12-17T02:35:56.813Z,20.70
2022-12-17T02:38:44.347Z,20.45
2022-12-17T02:41:34.292Z,19.23
2022-12-17T02:44:21.290Z,19.95
2022-12-17T02:47:07.387Z,20.50
2022-12-17T02:49:53.294Z,18.73
2022-12-17T02:52:39.619Z,19.85
2022-12-17T02:55:37.395Z,20.42
2022-12-17T02:58:22.782Z,19.77
2022-12-17T03:01:09.953Z,21.13
2022-12-17T03:03:55.908Z,23.42
2022-12-17T03:06:41.717Z,21.30
2022-12-17T03:09:27.308Z,22.33
2022-12-17T03:12:13.660Z,23.08
2022-12-17T03:14:59.607Z,19.58
2022-12-17T03:17:47.601Z,20.80
2022-12-17T03:20:33.147Z,19.88
2022-12-17T03:23:22.382Z,21.08
2022-12-17T03:26:08.388Z,21.75
2022-12-17T03:28:54.158Z,20.08
2022-12-17T03:31:39.883Z,16.63
2022-12-17T03:34:32.623Z,16.75
2022-12-17T03:37:18.473Z,18.98
2022-12-17T03:40:04.291Z,20.23
2022-12-17T03:42:49.616Z,19.50
2022-12-17T03:45:35.659Z,23.42
2022-12-17T03:48:25.615Z,19.23
2022-12-17T03:51:13.236Z,19.73
2022-12-17T03:53:59.172Z,17.67
2022-12-17T03:56:45.080Z,17.48
2022-12-17T03:59:30.941Z,18.80
2022-12-17T04:02:16.997Z,18.85
2022-12-17T04:05:03.045Z,21.25
2022-12-17T04:07:50.116Z,19.13
2022-12-17T04:10:35.996Z,21.13
2022-12-17T04:13:22.022Z,20.83
2022-12-17T04:16:07.975Z,18.75
2022-12-17T04:18:53.830Z,21.55
2022-12-17T04:21:39.902Z,20.55
2022-12-17T04:24:27.130Z,20.02
2022-12-17T04:27:12.821Z,19.77
2022-12-17T04:29:58.083Z,17.40
2022-12-17T04:32:43.834Z,19.92
2022-12-17T04:35:29.503Z,17.83
2022-12-17T04:38:15.389Z,20.20
2022-12-17T04:41:02.639Z,19.65
2022-12-17T04:43:48.444Z,21.73
2022-12-17T04:46:34.428Z,23.58
2022-12-17T04:49:19.943Z,23.00
2022-12-17T04:52:05.685Z,21.00
2022-12-17T04:54:51.561Z,20.15
2022-12-17T04:57:38.749Z,21.33
2022-12-17T05:00:25.744Z,22.10
2022-12-17T05:03:11.431Z,23.63
2022-12-17T05:05:57.427Z,23.05
2022-12-17T05:08:43.409Z,19.92
2022-12-17T05:11:29.003Z,23.15
2022-12-17T05:14:15.798Z,23.63
2022-12-17T05:17:01.658Z,22.77
2022-12-17T05:19:47.431Z,23.23
2022-12-17T05:22:33.077Z,22.02
2022-12-17T05:25:18.906Z,21.27
2022-12-17T05:28:04.809Z,23.52
2022-12-17T05:31:00.427Z,24.10
2022-12-17T05:33:46.306Z,23.83
2022-12-17T05:36:32.195Z,22.88
2022-12-17T05:39:17.935Z,25.23
2022-12-17T05:42:03.333Z,21.42
2022-12-17T05:44:48.923Z,26.00
2022-12-17T05:47:35.785Z,26.38
2022-12-17T05:50:21.280Z,25.77
2022-12-17T05:53:07.022Z,25.63
2022-12-17T05:55:52.933Z,23.73
2022-12-17T05:58:38.406Z,25.75
2022-12-17T06:01:24.684Z,26.15
2022-12-17T06:04:11.852Z,26.98
2022-12-17T06:06:57.615Z,26.25
2022-12-17T06:09:43.532Z,27.92
2022-12-17T06:12:29.329Z,26.55
2022-12-17T06:15:15.258Z,26.65
2022-12-17T06:18:00.957Z,29.23
2022-12-17T06:20:48.076Z,28.58
2022-12-17T06:23:34.323Z,29.75
2022-12-17T06:26:19.998Z,29.33
2022-12-17T06:29:05.880Z,29.77
2022-12-17T06:31:51.633Z,28.30
2022-12-17T06:34:49.085Z,28.48
2022-12-17T06:37:36.304Z,26.27
2022-12-17T06:40:22.708Z,31.80
2022-12-17T06:43:11.955Z,29.73
2022-12-17T06:45:57.838Z,30.33
2022-12-17T06:48:43.771Z,32.92
2022-12-17T06:51:29.600Z,35.08
2022-12-17T06:54:16.836Z,31.83
2022-12-17T06:57:02.054Z,27.88
2022-12-17T06:59:47.969Z,30.05
2022-12-17T07:02:33.795Z,32.25
2022-12-17T07:05:19.374Z,32.50
2022-12-17T07:08:05.228Z,30.98
2022-12-17T07:10:52.211Z,33.13
2022-12-17T07:13:38.475Z,34.35
2022-12-17T07:16:24.745Z,34.30
2022-12-17T07:19:09.299Z,33.45
2022-12-17T07:21:54.671Z,33.50
2022-12-17T07:24:45.910Z,32.85
2022-12-17T07:27:32.949Z,30.55
2022-12-17T07:30:18.783Z,35.42
2022-12-17T07:33:04.634Z,31.98
2022-12-17T07:35:50.039Z,34.78
2022-12-17T07:38:35.864Z,30.98
2022-12-17T07:41:21.550Z,31.63
2022-12-17T07:44:08.320Z,30.75
2022-12-17T07:46:54.233Z,32.60
2022-12-17T07:49:39.652Z,32.72
2022-12-17T07:52:25.495Z,32.90
2022-12-17T07:55:15.468Z,30.30
2022-12-17T07:58:03.988Z,29.35
2022-12-17T08:00:51.508Z,32.63
2022-12-17T08:03:37.763Z,31.73
2022-12-17T08:06:23.952Z,32.72
2022-12-17T08:09:09.949Z,31.88
2022-12-17T08:11:55.526Z,30.35
2022-12-17T08:14:41.212Z,30.77
2022-12-17T08:17:28.188Z,28.90
2022-12-17T08:20:14.115Z,31.23
2022-12-17T08:22:59.911Z,29.33
2022-12-17T08:25:45.499Z,31.30
2022-12-17T08:28:50.255Z,29.35
2022-12-17T08:31:36.897Z,31.73
2022-12-17T08:34:24.037Z,32.60
2022-12-17T08:37:09.580Z,32.63
2022-12-17T08:39:55.497Z,34.17
2022-12-17T08:42:41.372Z,32.15
2022-12-17T08:45:27.761Z,32.97
2022-12-17T08:48:20.957Z,32.55
2022-12-17T08:51:08.156Z,30.63
2022-12-17T08:53:56.194Z,30.02
2022-12-17T08:56:53.042Z,30.48
2022-12-17T08:59:39.920Z,32.45
2022-12-17T09:02:28.392Z,31.92
2022-12-17T09:05:14.389Z,28.58
2022-12-17T09:08:01.607Z,24.55
2022-12-17T09:10:47.475Z,23.58
2022-12-17T09:13:32.886Z,30.42
2022-12-17T09:16:18.412Z,27.48
2022-12-17T09:19:04.376Z,32.40
2022-12-17T09:21:50.679Z,30.88
2022-12-17T09:24:37.828Z,32.50
2022-12-17T09:27:23.841Z,31.52
2022-12-17T09:30:05.845Z,32.80
2022-12-17T09:32:51.747Z,31.13
2022-12-17T09:35:37.403Z,31.17
2022-12-17T09:38:23.034Z,30.55
2022-12-17T09:41:10.534Z,28.25
2022-12-17T09:44:03.089Z,28.20
2022-12-17T09:46:52.995Z,29.40
2022-12-17T09:49:40.311Z,28.65
2022-12-17T09:52:36.934Z,27.75
2022-12-17T09:55:32.618Z,29.02
2022-12-17T09:58:20.271Z,28.98
2022-12-17T10:01:06.197Z,29.05
2022-12-17T10:03:53.155Z,28.08
2022-12-17T10:06:43.491Z,27.92
2022-12-17T10:09:30.956Z,27.83
2022-12-17T10:12:14.854Z,29.80
2022-12-17T10:15:01.960Z,26.55
2022-12-17T10:17:47.567Z,25.83
2022-12-17T10:20:39.960Z,27.95
2022-12-17T10:26:12.027Z,28.85
2022-12-17T10:28:57.718Z,27.73
2022-12-17T10:31:53.530Z,28.70
2022-12-17T10:34:39.922Z,29.30
2022-12-17T10:37:37.276Z,27.95
2022-12-17T10:40:34.158Z,29.88
2022-12-17T10:43:19.545Z,29.15
2022-12-17T10:46:12.829Z,30.40
2022-12-17T10:48:59.745Z,27.75
2022-12-17T10:51:49.533Z,28.25
2022-12-17T10:54:46.937Z,26.25
2022-12-17T10:57:42.158Z,24.75
2022-12-17T11:00:45.712Z,29.55
2022-12-17T11:03:44.441Z,27.65
2022-12-17T11:06:34.224Z,27.83
2022-12-17T11:09:25.208Z,26.85
2022-12-17T11:12:10.999Z,29.20
2022-12-17T11:15:04.030Z,27.58
2022-12-17T11:17:49.837Z,26.33
2022-12-17T11:20:41.400Z,24.70
2022-12-17T11:23:33.078Z,23.88
2022-12-17T11:26:22.029Z,28.13
2022-12-17T11:29:07.518Z,24.10
2022-12-17T11:32:07.347Z,25.35
2022-12-17T11:35:07.009Z,27.88
2022-12-17T11:37:57.030Z,26.23
2022-12-17T11:40:49.473Z,25.35
2022-12-17T11:43:39.049Z,28.63
2022-12-17T11:46:34.048Z,30.58
2022-12-17T11:49:24.020Z,29.55
2022-12-17T11:52:12.579Z,29.80
2022-12-17T11:55:02.211Z,30.15
2022-12-17T11:57:56.399Z,30.05
2022-12-17T12:00:42.048Z,27.13
2022-12-17T12:03:38.752Z,28.23
2022-12-17T12:06:32.571Z,28.73
2022-12-17T12:09:25.135Z,28.60
2022-12-17T12:12:15.974Z,29.90
2022-12-17T12:15:08.981Z,27.63
2022-12-17T12:18:00.270Z,31.42
2022-12-17T12:20:57.968Z,29.75
2022-12-17T12:23:48.293Z,32.63
2022-12-17T12:26:36.170Z,30.50
2022-12-17T12:29:28.471Z,27.77
2022-12-17T12:35:03.939Z,27.77
2022-12-17T12:37:50.302Z,29.50
2022-12-17T12:40:42.461Z,27.92
2022-12-17T12:43:33.783Z,25.92
2022-12-17T12:46:23.128Z,31.05
2022-12-17T12:49:15.028Z,27.70
2022-12-17T12:52:00.767Z,26.80
2022-12-17T12:54:49.144Z,26.55
2022-12-17T12:57:49.087Z,27.45
2022-12-17T13:00:49.746Z,27.48
2022-12-17T13:03:43.837Z,27.77
2022-12-17T13:06:14.178Z,26.70
2022-12-17T13:08:43.060Z,29.75
2022-12-17T13:11:22.652Z,26.30
2022-12-17T13:13:56.753Z,29.73
2022-12-17T13:16:32.871Z,28.23
2022-12-17T13:19:06.482Z,30.67
2022-12-17T13:21:36.076Z,29.65
2022-12-17T13:24:11.841Z,27.08
2022-12-17T13:26:44.969Z,28.67
2022-12-17T13:29:22.499Z,29.58
2022-12-17T13:32:02.221Z,28.33
2022-12-17T13:34:39.966Z,30.50
2022-12-17T13:37:14.847Z,29.80
2022-12-17T13:39:51.348Z,31.00
2022-12-17T13:42:23.272Z,31.73
2022-12-17T13:44:51.590Z,31.77
2022-12-17T13:47:22.030Z,32.83
2022-12-17T13:50:31.522Z,31.27
2022-12-17T13:52:43.784Z,32.38
2022-12-17T13:55:19.511Z,35.63
2022-12-17T13:57:48.622Z,30.17
2022-12-17T14:00:22.603Z,30.52
2022-12-17T14:03:01.519Z,31.88
2022-12-17T14:05:33.360Z,31.15
2022-12-17T14:08:04.661Z,32.90
2022-12-17T14:10:33.326Z,32.22
2022-12-17T14:13:06.296Z,33.75
2022-12-17T14:15:34.364Z,30.65
2022-12-17T14:18:03.288Z,35.25
2022-12-17T14:20:32.734Z,30.33
2022-12-17T14:23:04.185Z,29.50
2022-12-17T14:25:36.487Z,31.23
2022-12-17T14:28:06.248Z,31.75
2022-12-17T14:30:42.955Z,32.13
2022-12-17T14:33:27.667Z,31.15
2022-12-17T14:35:56.989Z,28.80
2022-12-17T14:38:37.924Z,29.30
2022-12-17T14:41:33.133Z,26.88
2022-12-17T14:44:02.127Z,28.77
2022-12-17T14:46:31.159Z,29.63
2022-12-17T14:49:03.795Z,31.00
2022-12-17T14:51:34.089Z,31.38
2022-12-17T14:54:29.114Z,31.88
2022-12-17T14:56:58.500Z,30.50
2022-12-17T14:59:31.730Z,31.85
2022-12-17T15:02:01.820Z,29.55
2022-12-17T15:04:31.346Z,28.95
2022-12-17T15:07:00.039Z,29.45
2022-12-17T15:09:29.631Z,27.25
2022-12-17T15:11:57.563Z,31.33
2022-12-17T15:14:25.514Z,28.17
2022-12-17T15:16:53.617Z,28.15
2022-12-17T15:19:22.507Z,30.67
2022-12-17T15:21:50.512Z,36.78
2022-12-17T15:24:21.528Z,32.83
2022-12-17T15:26:50.971Z,30.73
2022-12-17T15:29:19.095Z,30.30
2022-12-17T15:31:47.318Z,29.92
2022-12-17T15:34:15.322Z,32.65
2022-12-17T15:36:43.296Z,31.73
2022-12-17T15:39:11.823Z,32.10
2022-12-17T15:41:57.220Z,30.77
2022-12-17T15:44:26.509Z,28.88
2022-12-17T15:46:54.522Z,29.90
2022-12-17T15:49:22.802Z,29.60
2022-12-17T15:51:50.795Z,31.20
2022-12-17T15:54:18.775Z,28.92
2022-12-17T15:56:53.554Z,25.77
2022-12-17T15:59:21.625Z,28.63
2022-12-17T16:01:51.051Z,27.90
2022-12-17T16:04:24.639Z,30.50
2022-12-17T16:06:53.311Z,29.27
2022-12-17T16:09:24.336Z,29.52
2022-12-17T16:11:54.261Z,32.37
2022-12-17T16:14:22.341Z,30.90
2022-12-17T16:16:52.305Z,32.72
2022-12-17T16:19:20.366Z,31.02
2022-12-17T16:21:48.326Z,28.33
2022-12-17T16:24:16.295Z,27.40
2022-12-17T16:26:44.303Z,28.85
2022-12-17T16:29:12.409Z,28.35
2022-12-17T16:31:40.610Z,29.33
2022-12-17T16:34:10.707Z,28.52
2022-12-17T16:36:38.681Z,29.88
2022-12-17T16:39:06.932Z,32.05
2022-12-17T16:41:35.254Z,32.47
2022-12-17T16:44:03.772Z,31.75
2022-12-17T16:46:32.927Z,32.08
2022-12-17T16:49:06.380Z,29.73
2022-12-17T16:51:36.162Z,28.17
2022-12-17T16:54:06.223Z,28.48
2022-12-17T16:56:39.643Z,30.92
2022-12-17T16:59:09.514Z,28.65
2022-12-17T17:01:38.795Z,27.95
2022-12-17T17:04:07.736Z,28.00
2022-12-17T17:06:40.306Z,29.17
2022-12-17T17:09:08.718Z,30.05
2022-12-17T17:11:36.965Z,30.10
2022-12-17T17:14:06.624Z,32.28
2022-12-17T17:16:35.116Z,31.55
2022-12-17T17:19:04.351Z,32.05
2022-12-17T17:21:34.250Z,30.92
2022-12-17T17:24:05.039Z,28.70
2022-12-17T17:26:33.916Z,29.55
2022-12-17T17:29:02.606Z,29.65
2022-12-17T17:34:18.883Z,30.63
2022-12-17T17:36:46.971Z,30.35
2022-12-17T17:39:16.263Z,35.92
2022-12-17T17:41:44.217Z,31.83
2022-12-17T17:44:13.811Z,31.85
2022-12-17T17:46:42.735Z,33.40
2022-12-17T17:49:11.845Z,32.15
2022-12-17T17:54:31.785Z,36.25
2022-12-17T17:56:59.723Z,32.30
2022-12-17T17:59:33.381Z,36.08
2022-12-17T18:02:02.996Z,34.55
2022-12-17T18:04:32.259Z,31.92
2022-12-17T18:09:49.658Z,30.83
2022-12-17T18:12:35.631Z,32.35
2022-12-17T18:15:19.105Z,34.45
2022-12-17T18:17:48.595Z,32.55
2022-12-17T18:20:17.192Z,33.13
2022-12-17T18:22:46.833Z,31.95
2022-12-17T18:25:16.904Z,31.95
2022-12-17T18:27:45.006Z,33.00
2022-12-17T18:30:14.107Z,29.48
2022-12-17T18:32:42.194Z,32.97
2022-12-17T18:35:10.750Z,30.67
2022-12-17T18:37:38.994Z,33.60
2022-12-17T18:40:08.321Z,33.75
2022-12-17T18:42:55.399Z,32.30
2022-12-17T18:45:23.527Z,30.20
2022-12-17T18:47:51.815Z,33.53
2022-12-17T18:50:19.968Z,31.98
2022-12-17T18:52:47.951Z,27.17
2022-12-17T18:55:16.352Z,28.45
2022-12-17T18:57:45.728Z,30.80
2022-12-17T19:00:15.330Z,29.23
2022-12-17T19:02:44.327Z,28.25
2022-12-17T19:05:12.554Z,29.00
2022-12-17T19:07:40.544Z,29.77
2022-12-17T19:10:09.489Z,30.10
2022-12-17T19:12:37.586Z,29.48
2022-12-17T19:15:08.137Z,30.08
2022-12-17T19:17:36.102Z,30.50
2022-12-17T19:20:04.203Z,28.77
2022-12-17T19:22:32.246Z,32.80
2022-12-17T19:25:00.228Z,27.63
2022-12-17T19:27:28.833Z,31.60
2022-12-17T19:29:57.160Z,31.50
2022-12-17T19:32:26.571Z,29.05
2022-12-17T19:34:54.566Z,27.88
2022-12-17T19:37:22.610Z,32.47
2022-12-17T19:39:50.850Z,29.23
2022-12-17T19:42:34.978Z,30.58
2022-12-17T19:45:05.205Z,29.48
2022-12-17T19:47:34.760Z,30.08
2022-12-17T19:50:02.794Z,31.15
2022-12-17T19:52:30.808Z,32.28
2022-12-17T19:54:58.829Z,29.50
2022-12-17T19:57:26.774Z,31.90
2022-12-17T19:59:54.714Z,27.45
2022-12-17T20:02:24.063Z,29.80
2022-12-17T20:04:55.281Z,31.17
2022-12-17T20:07:23.245Z,26.80
2022-12-17T20:09:51.178Z,31.88
2022-12-17T20:12:19.154Z,28.25
2022-12-17T20:14:47.208Z,28.92
2022-12-17T20:17:15.163Z,28.95
2022-12-17T20:19:43.594Z,27.67
2022-12-17T20:22:12.937Z,31.52
2022-12-17T20:24:40.990Z,30.17
2022-12-17T20:27:09.020Z,29.23
2022-12-17T20:29:37.023Z,31.42
2022-12-17T20:32:05.432Z,33.38
2022-12-17T20:34:33.629Z,32.22
2022-12-17T20:37:01.613Z,32.22
2022-12-17T20:39:32.144Z,29.83
2022-12-17T20:42:00.148Z,33.80
2022-12-17T20:44:28.868Z,30.52
2022-12-17T20:46:56.875Z,32.50
2022-12-17T20:49:24.839Z,29.23
2022-12-17T20:51:52.844Z,29.75
2022-12-17T20:54:21.790Z,29.30
2022-12-17T20:56:51.150Z,28.08
2022-12-17T20:59:20.279Z,27.20
2022-12-17T21:01:54.278Z,29.48
2022-12-17T21:04:24.799Z,28.83
2022-12-17T21:06:53.128Z,31.63
2022-12-17T21:09:22.531Z,31.77
2022-12-17T21:11:52.000Z,32.55
2022-12-17T21:14:20.458Z,33.47
2022-12-17T21:16:49.353Z,35.00
2022-12-17T21:19:20.113Z,34.85
2022-12-17T21:21:48.337Z,35.20
2022-12-17T21:24:16.390Z,35.10
2022-12-17T21:26:45.940Z,35.50
2022-12-17T21:29:15.668Z,40.72
2022-12-17T21:31:45.813Z,33.33
2022-12-17T21:34:17.306Z,33.22
2022-12-17T21:36:46.386Z,36.92
2022-12-17T21:39:15.439Z,34.45
2022-12-17T21:42:07.771Z,31.00
2022-12-17T21:44:37.605Z,38.42
2022-12-17T21:47:05.721Z,37.90
2022-12-17T21:49:34.070Z,36.90
2022-12-17T21:52:02.889Z,35.90
2022-12-17T21:54:31.023Z,37.13
2022-12-17T21:56:59.149Z,39.25
2022-12-17T21:59:27.213Z,34.95
2022-12-17T22:01:57.516Z,36.65
2022-12-17T22:04:26.241Z,38.33
2022-12-17T22:07:02.310Z,37.38
2022-12-17T22:09:57.195Z,36.10
2022-12-17T22:12:44.495Z,39.35
2022-12-17T22:15:13.001Z,38.03
2022-12-17T22:17:43.389Z,38.22
2022-12-17T22:20:12.348Z,35.72
2022-12-17T22:22:40.381Z,38.95
2022-12-17T22:25:11.407Z,41.15
2022-12-17T22:27:40.721Z,38.30
2022-12-17T22:30:30.172Z,37.70
2022-12-17T22:33:05.619Z,40.08
2022-12-17T22:42:42.966Z,39.55
2022-12-17T22:44:36.591Z,37.70
2022-12-17T22:44:51.894Z,36.78
2022-12-17T22:47:19.493Z,38.88
2022-12-17T22:49:49.700Z,37.65
2022-12-17T22:52:18.122Z,37.25
2022-12-17T22:54:47.349Z,39.03
2022-12-17T22:57:34.393Z,38.05
2022-12-17T23:00:05.657Z,36.20
2022-12-17T23:02:33.771Z,42.15
2022-12-17T23:05:03.121Z,35.53
2022-12-17T23:07:32.125Z,36.55
2022-12-17T23:10:00.330Z,36.17
2022-12-17T23:12:46.245Z,37.28
2022-12-17T23:15:14.272Z,35.20
2022-12-17T23:17:42.352Z,38.58
2022-12-17T23:20:12.728Z,34.42
2022-12-17T23:22:40.968Z,34.33
2022-12-17T23:25:09.747Z,32.78
2022-12-17T23:27:38.323Z,32.55
2022-12-17T23:30:07.520Z,31.63
2022-12-17T23:32:35.744Z,31.08
2022-12-17T23:35:03.987Z,29.15
2022-12-17T23:37:39.384Z,26.13
2022-12-17T23:40:13.341Z,28.17
2022-12-17T23:42:41.404Z,29.80
2022-12-17T23:45:11.424Z,26.70
2022-12-17T23:47:40.039Z,29.98
2022-12-17T23:50:09.693Z,31.08
2022-12-17T23:52:39.912Z,32.53
2022-12-17T23:55:08.487Z,28.90
2022-12-17T23:57:36.496Z,29.75
